createdAt,value
2023-05-12T00:01:01.636Z,100480.75
2023-05-12T00:04:04.533Z,100486.28
2023-05-12T00:07:07.495Z,100481.34
2023-05-12T00:10:10.358Z,100476.88
2023-05-12T00:13:12.852Z,100490.66
2023-05-12T00:16:17.563Z,100472.31
2023-05-12T00:19:21.326Z,100474.19
2023-05-12T00:22:23.808Z,100484.19
2023-05-12T00:25:26.303Z,100476.50
2023-05-12T00:28:28.724Z,100469.47
2023-05-12T00:31:32.476Z,100470.69
2023-05-12T00:34:34.916Z,100479.69
2023-05-12T00:37:38.192Z,100466.19
2023-05-12T00:40:41.405Z,100461.63
2023-05-12T00:43:43.865Z,100476.19
2023-05-12T00:46:46.382Z,100476.91
2023-05-12T00:49:49.020Z,100470.28
2023-05-12T00:52:52.164Z,100458.19
2023-05-12T00:55:55.710Z,100465.13
2023-05-12T00:58:59.338Z,100450.34
2023-05-12T01:02:02.134Z,100444.63
2023-05-12T01:05:05.724Z,100461.75
2023-05-12T01:08:09.449Z,100466.22
2023-05-12T01:11:12.099Z,100469.03
2023-05-12T01:14:15.158Z,100457.25
2023-05-12T01:17:22.293Z,100473.91
2023-05-12T01:20:28.635Z,100475.94
2023-05-12T01:23:37.540Z,100459.75
2023-05-12T01:26:40.204Z,100451.56
2023-05-12T01:29:45.529Z,100470.38
2023-05-12T01:32:48.495Z,100458.97
2023-05-12T01:35:50.942Z,100460.56
2023-05-12T01:38:55.200Z,100453.91
2023-05-12T01:41:57.826Z,100471.91
2023-05-12T01:45:00.313Z,100456.19
2023-05-12T01:48:04.118Z,100468.16
2023-05-12T01:51:09.804Z,100467.44
2023-05-12T01:54:12.369Z,100457.78
2023-05-12T01:57:14.864Z,100463.84
2023-05-12T02:00:18.405Z,100473.22
2023-05-12T02:03:23.743Z,100461.50
2023-05-12T02:06:27.256Z,100452.34
2023-05-12T02:09:29.974Z,100455.38
2023-05-12T02:12:36.178Z,100464.16
2023-05-12T02:15:38.637Z,100473.75
2023-05-12T02:18:41.254Z,100468.91
2023-05-12T02:21:46.120Z,100464.22
2023-05-12T02:24:48.647Z,100468.84
2023-05-12T02:27:52.042Z,100471.88
2023-05-12T02:30:54.830Z,100482.84
2023-05-12T02:33:58.887Z,100479.88
2023-05-12T02:37:01.721Z,100483.06
2023-05-12T02:40:04.847Z,100487.63
2023-05-12T02:43:07.445Z,100490.38
2023-05-12T02:46:10.175Z,100480.19
2023-05-12T02:49:12.692Z,100497.34
2023-05-12T02:52:15.246Z,100490.09
2023-05-12T02:55:17.796Z,100499.72
2023-05-12T02:58:20.211Z,100499.47
2023-05-12T03:01:22.796Z,100493.81
2023-05-12T03:04:25.384Z,100497.81
2023-05-12T03:07:27.970Z,100491.69
2023-05-12T03:10:31.507Z,100483.69
2023-05-12T03:13:33.921Z,100488.09
2023-05-12T03:16:37.003Z,100474.34
2023-05-12T03:19:39.768Z,100489.94
2023-05-12T03:22:42.229Z,100499.78
2023-05-12T03:25:46.370Z,100498.25
2023-05-12T03:28:49.240Z,100505.00
2023-05-12T03:31:51.741Z,100505.41
2023-05-12T03:34:54.914Z,100504.66
2023-05-12T03:37:57.568Z,100508.28
2023-05-12T03:41:06.901Z,100517.88
2023-05-12T03:44:11.189Z,100508.78
2023-05-12T03:47:13.889Z,100497.75
2023-05-12T03:50:16.630Z,100509.34
2023-05-12T03:53:19.880Z,100515.47
2023-05-12T03:56:22.955Z,100517.69
2023-05-12T03:59:25.779Z,100504.69
2023-05-12T04:02:28.362Z,100508.59
2023-05-12T04:05:30.942Z,100523.94
2023-05-12T04:08:34.160Z,100519.31
2023-05-12T04:11:37.060Z,100505.09
2023-05-12T04:14:43.281Z,100524.75
2023-05-12T04:17:45.996Z,100513.59
2023-05-12T04:20:48.561Z,100518.88
2023-05-12T04:23:52.789Z,100532.47
2023-05-12T04:26:57.653Z,100535.28
2023-05-12T04:30:00.171Z,100522.44
2023-05-12T04:33:02.908Z,100528.25
2023-05-12T04:36:05.815Z,100538.22
2023-05-12T04:39:08.873Z,100513.97
2023-05-12T04:42:11.448Z,100508.56
2023-05-12T04:45:14.026Z,100523.16
2023-05-12T04:48:16.768Z,100534.13
2023-05-12T04:51:19.142Z,100535.72
2023-05-12T04:54:22.014Z,100516.72
2023-05-12T04:57:24.652Z,100535.13
2023-05-12T05:00:27.484Z,100536.88
2023-05-12T05:03:30.417Z,100532.47
2023-05-12T05:06:33.311Z,100537.22
2023-05-12T05:09:36.972Z,100533.00
2023-05-12T05:12:39.597Z,100519.78
2023-05-12T05:15:53.248Z,100529.75
2023-05-12T05:18:58.261Z,100543.06
2023-05-12T05:22:01.438Z,100526.34
2023-05-12T05:25:04.416Z,100532.69
2023-05-12T05:28:08.246Z,100543.22
2023-05-12T05:31:17.051Z,100535.25
2023-05-12T05:34:19.949Z,100543.34
2023-05-12T05:37:23.261Z,100546.72
2023-05-12T05:40:25.882Z,100545.22
2023-05-12T05:43:29.870Z,100554.41
2023-05-12T05:46:33.361Z,100550.81
2023-05-12T05:49:36.761Z,100544.34
2023-05-12T05:52:39.369Z,100559.66
2023-05-12T05:55:42.055Z,100569.41
2023-05-12T05:58:44.679Z,100557.19
2023-05-12T06:01:48.225Z,100551.66
2023-05-12T06:04:52.522Z,100565.25
2023-05-12T06:07:55.428Z,100561.69
2023-05-12T06:10:57.965Z,100565.31
2023-05-12T06:14:00.450Z,100553.13
2023-05-12T06:17:03.094Z,100549.50
2023-05-12T06:20:06.763Z,100566.03
2023-05-12T06:23:09.627Z,100550.66
2023-05-12T06:26:12.099Z,100559.28
2023-05-12T06:29:15.239Z,100553.16
2023-05-12T06:32:17.845Z,100568.44
2023-05-12T06:35:20.616Z,100563.94
2023-05-12T06:38:23.246Z,100560.91
2023-05-12T06:41:26.002Z,100575.56
2023-05-12T06:44:28.671Z,100568.75
2023-05-12T06:47:31.156Z,100584.38
2023-05-12T06:50:33.882Z,100582.44
2023-05-12T06:53:39.330Z,100564.22
2023-05-12T06:56:41.962Z,100558.66
2023-05-12T06:59:44.560Z,100577.56
2023-05-12T07:02:47.250Z,100564.16
2023-05-12T07:05:49.791Z,100576.84
2023-05-12T07:08:52.298Z,100574.63
2023-05-12T07:11:55.178Z,100582.16
2023-05-12T07:14:57.657Z,100579.78
2023-05-12T07:18:00.383Z,100563.72
2023-05-12T07:21:03.006Z,100567.78
2023-05-12T07:24:07.330Z,100567.94
2023-05-12T07:27:09.907Z,100579.56
2023-05-12T07:30:12.898Z,100571.84
2023-05-12T07:33:15.333Z,100570.41
2023-05-12T07:36:18.297Z,100560.69
2023-05-12T07:39:23.929Z,100561.47
2023-05-12T07:42:26.778Z,100573.44
2023-05-12T07:45:29.298Z,100580.22
2023-05-12T07:48:32.060Z,100586.53
2023-05-12T07:51:34.564Z,100586.31
2023-05-12T07:54:37.253Z,100598.72
2023-05-12T07:57:39.707Z,100594.19
2023-05-12T08:00:42.596Z,100589.38
2023-05-12T08:03:45.163Z,100590.66
2023-05-12T08:06:47.644Z,100600.50
2023-05-12T08:09:50.168Z,100590.66
2023-05-12T08:12:57.406Z,100597.97
2023-05-12T08:15:59.861Z,100598.00
2023-05-12T08:19:02.492Z,100590.72
2023-05-12T08:22:05.133Z,100587.97
2023-05-12T08:25:09.776Z,100599.31
2023-05-12T08:28:14.984Z,100596.03
2023-05-12T08:31:17.612Z,100613.47
2023-05-12T08:34:20.286Z,100621.50
2023-05-12T08:37:22.826Z,100609.03
2023-05-12T08:40:26.495Z,100614.03
2023-05-12T08:43:44.172Z,100618.19
2023-05-12T08:46:48.097Z,100598.34
2023-05-12T08:49:59.779Z,100617.91
2023-05-12T08:53:05.539Z,100623.41
2023-05-12T08:59:15.508Z,100636.03
2023-05-12T09:02:20.702Z,100621.38
2023-05-12T09:05:23.560Z,100641.47
2023-05-12T09:08:28.789Z,100624.25
2023-05-12T09:11:31.233Z,100622.06
2023-05-12T09:14:35.732Z,100642.28
2023-05-12T09:17:38.280Z,100641.34
2023-05-12T09:20:41.061Z,100631.66
2023-05-12T09:23:57.762Z,100636.66
2023-05-12T09:27:00.283Z,100634.97
2023-05-12T09:30:02.879Z,100638.13
2023-05-12T09:33:09.877Z,100650.78
2023-05-12T09:36:16.844Z,100638.50
2023-05-12T09:39:19.210Z,100636.53
2023-05-12T09:42:23.726Z,100655.97
2023-05-12T09:45:26.303Z,100662.59
2023-05-12T09:48:30.374Z,100659.16
2023-05-12T09:51:33.116Z,100659.88
2023-05-12T09:54:40.334Z,100670.41
2023-05-12T09:57:44.331Z,100650.72
2023-05-12T10:03:55.919Z,100673.13
2023-05-12T10:06:59.566Z,100662.75
2023-05-12T10:10:05.616Z,100658.97
2023-05-12T10:13:08.660Z,100650.91
2023-05-12T10:16:11.476Z,100658.97
2023-05-12T10:19:14.654Z,100676.59
2023-05-12T10:22:19.659Z,100665.03
2023-05-12T10:25:23.392Z,100684.41
2023-05-12T10:28:25.968Z,100678.88
2023-05-12T10:31:28.982Z,100677.72
2023-05-12T10:34:36.853Z,100662.91
2023-05-12T10:37:39.725Z,100666.59
2023-05-12T10:40:58.116Z,100687.47
2023-05-12T10:44:01.375Z,100669.22
2023-05-12T10:47:14.751Z,100685.63
2023-05-12T10:50:27.150Z,100696.13
2023-05-12T10:53:47.786Z,100682.44
2023-05-12T10:56:53.640Z,100692.13
2023-05-12T10:59:59.739Z,100680.84
2023-05-12T11:03:09.706Z,100688.19
2023-05-12T11:06:19.388Z,100683.31
2023-05-12T11:09:22.493Z,100710.19
2023-05-12T11:12:32.585Z,100689.31
2023-05-12T11:15:35.352Z,100698.13
2023-05-12T11:18:39.129Z,100680.03
2023-05-12T11:21:41.969Z,100706.69
2023-05-12T11:24:44.757Z,100692.47
2023-05-12T11:27:51.400Z,100695.28
2023-05-12T11:30:55.556Z,100692.47
2023-05-12T11:34:12.746Z,100696.09
2023-05-12T11:37:15.774Z,100692.50
2023-05-12T11:40:20.937Z,100668.66
2023-05-12T11:43:23.534Z,100666.81
2023-05-12T11:46:27.610Z,100667.41
2023-05-12T11:49:31.735Z,100679.34
2023-05-12T11:52:34.320Z,100667.53
2023-05-12T11:55:37.278Z,100678.44
2023-05-12T11:58:39.831Z,100681.19
2023-05-12T12:01:46.751Z,100689.81
2023-05-12T12:04:49.314Z,100688.38
2023-05-12T12:07:54.226Z,100653.94
2023-05-12T12:10:56.766Z,100687.84
2023-05-12T12:13:59.350Z,100684.03
2023-05-12T12:17:02.785Z,100691.53
2023-05-12T12:20:06.715Z,100683.88
2023-05-12T12:23:09.226Z,100689.25
2023-05-12T12:26:11.718Z,100698.69
2023-05-12T12:29:14.656Z,100688.44
2023-05-12T12:32:17.734Z,100675.22
2023-05-12T12:35:20.933Z,100689.31
2023-05-12T12:38:23.582Z,100689.16
2023-05-12T12:41:26.221Z,100696.56
2023-05-12T12:44:30.249Z,100696.44
2023-05-12T12:47:33.207Z,100692.56
2023-05-12T12:50:36.944Z,100698.91
2023-05-12T12:53:39.760Z,100692.41
2023-05-12T12:56:44.483Z,100700.63
2023-05-12T12:59:47.032Z,100693.97
2023-05-12T13:02:50.767Z,100688.69
2023-05-12T13:05:54.089Z,100687.88
2023-05-12T13:08:56.657Z,100687.00
2023-05-12T13:11:59.725Z,100700.22
2023-05-12T13:15:03.133Z,100698.41
2023-05-12T13:18:06.126Z,100696.28
2023-05-12T13:21:08.856Z,100698.03
2023-05-12T13:24:11.384Z,100684.47
2023-05-12T13:27:14.259Z,100710.31
2023-05-12T13:30:16.834Z,100693.44
2023-05-12T13:33:19.503Z,100702.97
2023-05-12T13:36:22.549Z,100690.84
2023-05-12T13:39:25.018Z,100696.75
2023-05-12T13:42:27.534Z,100702.72
2023-05-12T13:45:30.194Z,100686.16
2023-05-12T13:48:33.052Z,100679.56
2023-05-12T13:51:36.179Z,100694.19
2023-05-12T13:54:38.799Z,100708.41
2023-05-12T13:57:41.184Z,100711.97
2023-05-12T14:00:43.643Z,100700.47
2023-05-12T14:03:46.155Z,100702.50
2023-05-12T14:06:48.601Z,100701.25
2023-05-12T14:09:51.067Z,100696.44
2023-05-12T14:12:53.612Z,100701.78
2023-05-12T14:15:56.398Z,100710.50
2023-05-12T14:19:00.319Z,100710.88
2023-05-12T14:22:05.886Z,100707.28
2023-05-12T14:25:12.686Z,100693.97
2023-05-12T14:28:15.183Z,100712.66
2023-05-12T14:31:18.011Z,100702.06
2023-05-12T14:34:20.589Z,100713.63
2023-05-12T14:37:23.068Z,100707.28
2023-05-12T14:40:26.740Z,100715.66
2023-05-12T14:43:29.165Z,100727.59
2023-05-12T14:46:31.671Z,100727.66
2023-05-12T14:49:34.088Z,100726.69
2023-05-12T14:52:38.628Z,100733.31
2023-05-12T14:55:41.135Z,100714.72
2023-05-12T14:58:43.510Z,100732.38
2023-05-12T15:01:46.096Z,100720.31
2023-05-12T15:04:48.787Z,100718.50
2023-05-12T15:07:51.243Z,100738.41
2023-05-12T15:10:53.667Z,100732.38
2023-05-12T15:13:56.129Z,100728.97
2023-05-12T15:16:58.695Z,100728.78
2023-05-12T15:20:01.220Z,100734.78
2023-05-12T15:23:03.801Z,100725.97
2023-05-12T15:26:20.746Z,100736.06
2023-05-12T15:29:32.038Z,100743.84
2023-05-12T15:32:34.542Z,100750.09
2023-05-12T15:35:37.285Z,100720.44
2023-05-12T15:38:39.876Z,100749.25
2023-05-12T15:41:46.371Z,100734.88
2023-05-12T15:44:49.333Z,100738.50
2023-05-12T15:47:52.200Z,100735.69
2023-05-12T15:50:55.292Z,100737.03
2023-05-12T15:53:57.718Z,100728.81
2023-05-12T15:57:00.235Z,100741.88
2023-05-12T16:00:03.285Z,100745.09
2023-05-12T16:03:15.696Z,100719.47
2023-05-12T16:06:18.599Z,100741.69
2023-05-12T16:09:21.134Z,100743.50
2023-05-12T16:12:23.674Z,100741.31
2023-05-12T16:15:26.312Z,100728.13
2023-05-12T16:18:30.639Z,100716.28
2023-05-12T16:21:33.264Z,100736.50
2023-05-12T16:24:36.015Z,100743.94
2023-05-12T16:27:38.958Z,100744.47
2023-05-12T16:30:41.477Z,100725.69
2023-05-12T16:33:44.304Z,100746.94
2023-05-12T16:36:46.833Z,100748.56
2023-05-12T16:39:49.537Z,100740.75
2023-05-12T16:42:52.730Z,100738.94
2023-05-12T16:46:02.515Z,100747.38
2023-05-12T16:49:05.294Z,100763.59
2023-05-12T16:52:09.497Z,100763.00
2023-05-12T16:55:13.253Z,100749.41
2023-05-12T16:58:15.845Z,100760.22
2023-05-12T17:01:18.690Z,100754.00
2023-05-12T17:04:21.136Z,100754.78
2023-05-12T17:07:24.084Z,100737.16
2023-05-12T17:10:26.874Z,100754.38
2023-05-12T17:13:30.571Z,100755.41
2023-05-12T17:16:33.910Z,100769.44
2023-05-12T17:19:41.877Z,100760.81
2023-05-12T17:22:47.388Z,100768.25
2023-05-12T17:25:49.852Z,100782.28
2023-05-12T17:28:52.343Z,100786.69
2023-05-12T17:31:55.014Z,100771.88
2023-05-12T17:35:00.301Z,100792.72
2023-05-12T17:38:02.771Z,100777.31
2023-05-12T17:41:06.393Z,100796.75
2023-05-12T17:44:09.372Z,100782.72
2023-05-12T17:47:14.516Z,100807.81
2023-05-12T17:50:17.192Z,100803.56
2023-05-12T17:53:20.123Z,100804.38
2023-05-12T17:56:22.976Z,100792.38
2023-05-12T17:59:25.529Z,100804.78
2023-05-12T18:02:28.115Z,100796.97
2023-05-12T18:05:30.714Z,100796.38
2023-05-12T18:08:33.386Z,100804.19
2023-05-12T18:11:36.180Z,100793.56
2023-05-12T18:14:38.717Z,100812.41
2023-05-12T18:17:41.454Z,100792.75
2023-05-12T18:20:44.203Z,100809.59
2023-05-12T18:23:46.698Z,100816.41
2023-05-12T18:26:49.686Z,100800.19
2023-05-12T18:29:52.489Z,100810.63
2023-05-12T18:32:55.260Z,100817.41
2023-05-12T18:35:57.950Z,100800.56
2023-05-12T18:39:00.363Z,100808.78
2023-05-12T18:42:03.608Z,100811.19
2023-05-12T18:45:06.923Z,100807.19
2023-05-12T18:48:09.437Z,100817.22
2023-05-12T18:51:12.016Z,100816.78
2023-05-12T18:54:14.603Z,100828.81
2023-05-12T18:57:17.461Z,100814.16
2023-05-12T19:00:25.946Z,100806.97
2023-05-12T19:03:28.542Z,100824.78
2023-05-12T19:06:31.256Z,100820.59
2023-05-12T19:09:33.727Z,100814.34
2023-05-12T19:12:36.262Z,100827.78
2023-05-12T19:15:38.773Z,100808.47
2023-05-12T19:18:41.298Z,100816.28
2023-05-12T19:21:43.779Z,100814.28
2023-05-12T19:24:46.433Z,100835.75
2023-05-12T19:27:48.922Z,100830.78
2023-05-12T19:30:51.579Z,100802.66
2023-05-12T19:33:54.080Z,100825.13
2023-05-12T19:36:58.269Z,100834.53
2023-05-12T19:40:00.866Z,100850.81
2023-05-12T19:43:05.159Z,100840.16
2023-05-12T19:46:07.789Z,100838.97
2023-05-12T19:49:10.471Z,100822.72
2023-05-12T19:52:12.954Z,100857.97
2023-05-12T19:55:15.839Z,100857.03
2023-05-12T19:58:18.225Z,100851.81
2023-05-12T20:01:20.892Z,100854.44
2023-05-12T20:04:23.877Z,100858.44
2023-05-12T20:07:26.968Z,100831.94
2023-05-12T20:10:29.459Z,100860.81
2023-05-12T20:13:31.879Z,100864.19
2023-05-12T20:16:34.327Z,100849.53
2023-05-12T20:19:36.759Z,100847.13
2023-05-12T20:22:39.167Z,100843.16
2023-05-12T20:25:41.624Z,100851.19
2023-05-12T20:28:44.034Z,100851.38
2023-05-12T20:31:48.011Z,100853.22
2023-05-12T20:34:50.434Z,100841.13
2023-05-12T20:37:53.188Z,100852.16
2023-05-12T20:40:55.748Z,100847.56
2023-05-12T20:43:58.430Z,100854.63
2023-05-12T20:47:01.023Z,100836.72
2023-05-12T20:50:05.732Z,100857.81
2023-05-12T20:53:08.210Z,100836.72
2023-05-12T20:56:10.788Z,100857.25
2023-05-12T20:59:13.740Z,100861.22
2023-05-12T21:02:18.940Z,100855.00
2023-05-12T21:05:21.958Z,100835.94
2023-05-12T21:08:24.530Z,100857.03
2023-05-12T21:11:27.036Z,100866.81
2023-05-12T21:14:29.414Z,100852.16
2023-05-12T21:17:31.934Z,100858.44
2023-05-12T21:20:35.096Z,100834.31
2023-05-12T21:23:37.795Z,100846.63
2023-05-12T21:26:40.210Z,100868.88
2023-05-12T21:29:42.957Z,100866.69
2023-05-12T21:32:45.520Z,100867.09
2023-05-12T21:35:49.874Z,100859.06
2023-05-12T21:38:52.387Z,100868.88
2023-05-12T21:41:55.201Z,100871.28
2023-05-12T21:44:57.617Z,100874.91
2023-05-12T21:48:00.136Z,100872.47
2023-05-12T21:51:03.496Z,100862.28
2023-05-12T21:54:06.043Z,100870.72
2023-05-12T21:57:08.429Z,100867.91
2023-05-12T22:00:12.840Z,100859.44
2023-05-12T22:03:17.886Z,100870.88
2023-05-12T22:06:20.391Z,100870.88
2023-05-12T22:09:22.887Z,100851.81
2023-05-12T22:12:26.289Z,100868.44
2023-05-12T22:15:28.760Z,100865.28
2023-05-12T22:18:31.730Z,100859.06
2023-05-12T22:21:34.396Z,100880.13
2023-05-12T22:24:36.930Z,100855.81
2023-05-12T22:27:39.319Z,100868.44
2023-05-12T22:30:41.992Z,100846.38
2023-05-12T22:33:44.380Z,100850.16
2023-05-12T22:36:47.320Z,100855.97
2023-05-12T22:39:50.118Z,100846.56
2023-05-12T22:42:52.872Z,100860.06
2023-05-12T22:45:57.904Z,100853.41
2023-05-12T22:49:00.401Z,100856.63
2023-05-12T22:52:02.892Z,100842.53
2023-05-12T22:55:05.842Z,100859.63
2023-05-12T22:58:08.303Z,100854.19
2023-05-12T23:01:10.947Z,100849.81
2023-05-12T23:04:13.468Z,100837.94
2023-05-12T23:07:15.886Z,100833.53
2023-05-12T23:10:18.472Z,100844.78
2023-05-12T23:13:21.238Z,100846.22
2023-05-12T23:16:24.020Z,100838.34
2023-05-12T23:19:26.510Z,100811.06
2023-05-12T23:22:28.960Z,100839.13
2023-05-12T23:25:31.831Z,100834.53
2023-05-12T23:28:34.319Z,100816.69
2023-05-12T23:31:37.360Z,100828.38
2023-05-12T23:34:42.895Z,100823.13
2023-05-12T23:37:45.305Z,100814.28
2023-05-12T23:40:47.718Z,100824.31
2023-05-12T23:43:50.150Z,100830.34
2023-05-12T23:46:52.814Z,100822.53
2023-05-12T23:49:55.719Z,100820.50
2023-05-12T23:52:58.169Z,100828.72
2023-05-12T23:56:01.965Z,100816.69
2023-05-12T23:59:04.441Z,100815.88
